Time;durP1;ratioP1;P1;durP2;ratioP2;P2;SDS_P1;SDS_P2;PMS_P1;PMS_P2;Temp;Humidity;BMP_temperature;BMP_pressure;BME280_temperature;BME280_humidity;BME280_pressure;Samples;Min_cycle;Max_cycle;Signal;HPM_P1;HPM_P2
2023/06/23 03:18:53;;;;;;;1.75;0.40;;;19.60;99.90;;;;;;6125179;23;92410;-68
2023/06/23 03:21:21;;;;;;;2.17;0.60;;;19.60;99.90;;;;;;6124015;23;93434;-67
2023/06/23 03:23:50;;;;;;;3.95;0.60;;;19.60;99.90;;;;;;6124260;23;93864;-67
2023/06/23 03:26:17;;;;;;;2.58;0.52;;;19.50;99.70;;;;;;6124954;23;92476;-68
2023/06/23 03:28:44;;;;;;;4.15;0.60;;;19.60;99.50;;;;;;6125531;23;92311;-68
2023/06/23 03:31:12;;;;;;;1.65;0.50;;;19.50;98.40;;;;;;6124871;23;93237;-67
2023/06/23 03:33:43;;;;;;;2.40;0.50;;;19.50;99.30;;;;;;6124604;23;92918;-68
2023/06/23 03:36:11;;;;;;;2.75;0.75;;;19.50;99.90;;;;;;6124646;22;92280;-68
2023/06/23 03:38:45;;;;;;;4.25;0.60;;;19.50;99.90;;;;;;6126052;23;92460;-67
2023/06/23 03:41:13;;;;;;;5.15;0.43;;;19.40;99.90;;;;;;6124706;23;92584;-68
2023/06/23 03:43:54;;;;;;;2.65;0.52;;;19.40;99.90;;;;;;6124492;23;92316;-68
2023/06/23 03:46:27;;;;;;;4.55;0.52;;;19.40;99.90;;;;;;6124240;23;93522;-67
2023/06/23 03:48:58;;;;;;;2.95;0.88;;;19.50;99.90;;;;;;6125870;23;92606;-72
2023/06/23 03:51:26;;;;;;;5.00;1.08;;;19.50;99.90;;;;;;6124361;23;93669;-71
2023/06/23 03:53:54;;;;;;;3.60;0.50;;;19.60;99.90;;;;;;6124186;23;92971;-72
2023/06/23 03:56:22;;;;;;;3.17;0.57;;;19.60;99.90;;;;;;6124963;23;92328;-71
2023/06/23 03:58:50;;;;;;;4.18;0.65;;;19.60;99.90;;;;;;6125330;23;92113;-71
2023/06/23 04:01:19;;;;;;;1.05;0.32;;;19.60;99.90;;;;;;6124771;23;93114;-71
2023/06/23 04:03:46;;;;;;;2.97;0.35;;;19.50;99.90;;;;;;6147022;22;93107;-71
2023/06/23 04:06:13;;;;;;;6.95;0.57;;;19.40;99.90;;;;;;6125220;23;92510;-72
2023/06/23 04:08:40;;;;;;;2.95;0.40;;;19.40;99.90;;;;;;6125564;23;92530;-71
2023/06/23 04:11:09;;;;;;;3.55;0.55;;;19.30;99.90;;;;;;6123496;23;94585;-71
2023/06/23 04:13:37;;;;;;;2.85;0.32;;;19.40;99.90;;;;;;6124196;23;94676;-72
2023/06/23 04:16:05;;;;;;;1.95;0.30;;;19.40;99.90;;;;;;6124814;23;92451;-70
2023/06/23 04:18:33;;;;;;;1.55;0.30;;;19.40;99.90;;;;;;6154723;22;91948;-70
2023/06/23 04:21:02;;;;;;;1.17;0.20;;;19.30;99.90;;;;;;6154351;22;93207;-72
2023/06/23 04:23:30;;;;;;;2.30;0.60;;;19.40;99.90;;;;;;6153871;22;92839;-71
2023/06/23 04:25:58;;;;;;;1.67;0.32;;;19.30;99.90;;;;;;6154504;22;92262;-71
2023/06/23 04:28:25;;;;;;;2.63;0.40;;;19.30;99.90;;;;;;6128592;22;91729;-72
2023/06/23 04:30:52;;;;;;;1.58;0.55;;;19.40;99.90;;;;;;6154488;22;93460;-72
2023/06/23 04:33:18;;;;;;;1.70;0.60;;;19.30;99.90;;;;;;6154827;22;92782;-72
2023/06/23 04:35:47;;;;;;;6.28;1.05;;;19.30;99.90;;;;;;6154310;22;93340;-71
2023/06/23 04:38:15;;;;;;;2.63;0.90;;;19.30;99.90;;;;;;6155280;22;92333;-72
2023/06/23 04:40:52;;;;;;;2.33;0.63;;;19.30;99.90;;;;;;6154141;22;92590;-71
2023/06/23 04:43:33;;;;;;;3.35;1.20;;;19.20;99.90;;;;;;6154623;22;93373;-72
2023/06/23 04:46:29;;;;;;;2.85;1.33;;;19.20;99.90;;;;;;6154775;22;92353;-72
2023/06/23 04:49:07;;;;;;;;;;;19.20;99.90;;;;;;6153133;22;92551;-73
2023/06/23 04:51:46;;;;;;;3.92;1.50;;;19.20;99.90;;;;;;6154369;22;92756;-72
2023/06/23 04:54:17;;;;;;;4.90;1.60;;;19.10;99.90;;;;;;6153107;22;92372;-75
2023/06/23 04:56:48;;;;;;;3.90;1.35;;;19.10;99.90;;;;;;6149773;22;92465;-73
2023/06/23 04:59:16;;;;;;;3.15;1.48;;;19.00;99.90;;;;;;6153839;22;92753;-73
2023/06/23 05:01:43;;;;;;;10.95;1.35;;;19.00;99.90;;;;;;6151918;22;94602;-70
2023/06/23 05:04:11;;;;;;;4.13;1.35;;;19.00;99.90;;;;;;6149753;22;93840;-71
2023/06/23 05:06:38;;;;;;;2.97;1.23;;;19.00;99.90;;;;;;6153135;22;91931;-74
2023/06/23 05:09:05;;;;;;;3.05;1.38;;;19.00;98.30;;;;;;6154715;22;92418;-72
2023/06/23 05:11:33;;;;;;;5.93;1.75;;;19.20;98.40;;;;;;6154607;22;93628;-71
2023/06/23 05:14:01;;;;;;;4.15;1.63;;;19.30;98.80;;;;;;6154330;22;92363;-72
2023/06/23 05:16:27;;;;;;;4.70;1.60;;;19.30;98.50;;;;;;6154609;22;92347;-72
2023/06/23 05:18:54;;;;;;;4.47;1.98;;;19.20;97.80;;;;;;6155255;22;91469;-73
2023/06/23 05:21:23;;;;;;;4.65;1.60;;;19.20;97.50;;;;;;6155303;22;92559;-71
2023/06/23 05:23:52;;;;;;;6.05;2.00;;;19.20;98.30;;;;;;6153810;22;93014;-72
2023/06/23 05:26:19;;;;;;;4.75;1.40;;;19.20;97.70;;;;;;6154038;22;93428;-70
2023/06/23 05:28:46;;;;;;;4.05;1.40;;;19.20;97.30;;;;;;6155153;22;92508;-71
2023/06/23 05:31:13;;;;;;;5.20;2.00;;;19.20;96.40;;;;;;6154622;22;94260;-72
2023/06/23 05:33:41;;;;;;;3.08;1.45;;;19.20;97.10;;;;;;6154043;22;92375;-71
2023/06/23 05:36:10;;;;;;;4.38;1.50;;;19.30;97.10;;;;;;6153830;22;92674;-72
2023/06/23 05:38:38;;;;;;;4.95;1.50;;;19.20;97.20;;;;;;6155534;22;92589;-71
2023/06/23 05:41:04;;;;;;;3.60;1.70;;;19.30;96.90;;;;;;6154443;22;92854;-71
2023/06/23 05:43:30;;;;;;;4.82;1.67;;;19.40;96.90;;;;;;6152695;22;92909;-72
2023/06/23 05:45:58;;;;;;;4.30;2.78;;;19.40;96.00;;;;;;6154773;22;92371;-72
2023/06/23 05:48:33;;;;;;;7.07;1.98;;;19.40;96.70;;;;;;6154458;22;92467;-73
2023/06/23 05:51:02;;;;;;;3.90;1.63;;;19.40;95.60;;;;;;6154509;22;94039;-72
2023/06/23 05:53:29;;;;;;;8.45;1.15;;;19.40;94.90;;;;;;6154201;22;93785;-74
2023/06/23 05:56:04;;;;;;;4.75;2.00;;;19.50;94.60;;;;;;6155335;22;92322;-72
2023/06/23 05:58:34;;;;;;;4.15;2.15;;;19.50;94.80;;;;;;6154596;22;92352;-71
2023/06/23 06:01:02;;;;;;;;;;;19.50;96.40;;;;;;6155604;22;93569;-72
2023/06/23 06:03:37;;;;;;;5.82;2.40;;;19.50;95.70;;;;;;6155097;22;92367;-73
2023/06/23 06:06:06;;;;;;;5.45;2.10;;;19.60;96.00;;;;;;6156135;22;92459;-70
2023/06/23 06:08:33;;;;;;;;;;;19.70;96.20;;;;;;6157143;22;91689;-71
2023/06/23 06:11:01;;;;;;;5.53;2.00;;;19.80;96.30;;;;;;6156372;22;93843;-72
2023/06/23 06:13:29;;;;;;;4.38;1.77;;;19.90;97.10;;;;;;6155353;22;92888;-70
2023/06/23 06:15:56;;;;;;;2.78;1.40;;;20.00;96.60;;;;;;6154818;22;93281;-71
2023/06/23 06:18:24;;;;;;;5.40;1.80;;;20.00;96.30;;;;;;6155088;22;92155;-71
2023/06/23 06:20:52;;;;;;;2.47;0.93;;;20.00;97.20;;;;;;6154595;22;93063;-72
2023/06/23 06:23:19;;;;;;;3.47;1.08;;;20.10;97.40;;;;;;6154643;22;93155;-70
2023/06/23 06:25:49;;;;;;;3.08;1.33;;;20.20;96.40;;;;;;6155585;22;92405;-71
2023/06/23 06:28:16;;;;;;;3.63;1.50;;;20.20;95.50;;;;;;6154947;22;92422;-70
2023/06/23 06:30:42;;;;;;;3.78;1.70;;;20.50;94.50;;;;;;6154239;22;93648;-70
2023/06/23 06:33:11;;;;;;;45.20;7.57;;;20.70;95.40;;;;;;6154214;22;92618;-72
2023/06/23 06:35:40;;;;;;;4.47;1.63;;;21.10;93.40;;;;;;6153672;22;92314;-71
2023/06/23 06:38:06;;;;;;;4.47;1.90;;;21.20;92.20;;;;;;6154794;22;92378;-72
2023/06/23 06:40:33;;;;;;;3.65;1.10;;;21.40;90.90;;;;;;6153919;22;94492;-69
2023/06/23 06:42:59;;;;;;;5.05;2.50;;;21.60;90.60;;;;;;6151663;22;94499;-73
2023/06/23 06:45:24;;;;;;;4.90;1.50;;;22.00;91.40;;;;;;6155005;22;92371;-70
2023/06/23 06:47:53;;;;;;;3.35;1.50;;;22.70;90.30;;;;;;6156109;22;92593;-70
2023/06/23 06:50:20;;;;;;;6.32;2.10;;;24.70;84.00;;;;;;6154607;22;93316;-68
2023/06/23 06:52:47;;;;;;;12.10;2.00;;;26.80;78.00;;;;;;6154823;22;92776;-71
2023/06/23 06:55:19;;;;;;;6.78;2.25;;;28.80;68.30;;;;;;6155128;22;92515;-70
2023/06/23 06:57:49;;;;;;;3.63;2.67;;;30.10;65.50;;;;;;6155595;22;91776;-70
2023/06/23 07:00:20;;;;;;;6.78;2.50;;;30.70;61.30;;;;;;6154668;22;93078;-70
2023/06/23 07:02:46;;;;;;;7.95;2.30;;;30.50;60.50;;;;;;6154541;22;92688;-71
2023/06/23 07:05:13;;;;;;;7.03;3.13;;;29.70;60.50;;;;;;6154512;22;93448;-70
2023/06/23 07:07:39;;;;;;;4.28;3.28;;;29.00;63.00;;;;;;6155416;22;92524;-73
2023/06/23 07:10:05;;;;;;;6.00;2.60;;;28.40;63.00;;;;;;6154938;22;93296;-72
2023/06/23 07:12:31;;;;;;;9.07;2.97;;;27.70;65.10;;;;;;6154278;22;95160;-71
2023/06/23 07:14:57;;;;;;;7.18;2.38;;;27.60;65.60;;;;;;6155221;22;92442;-72
2023/06/23 07:17:23;;;;;;;3.83;2.35;;;27.20;63.60;;;;;;6155032;22;92711;-71
2023/06/23 07:19:48;;;;;;;10.20;2.45;;;26.70;67.00;;;;;;6154744;22;93230;-71
2023/06/23 07:22:14;;;;;;;6.93;2.20;;;26.30;68.20;;;;;;6154962;22;92782;-71
2023/06/23 07:24:40;;;;;;;4.50;2.80;;;26.20;69.30;;;;;;6128650;22;92064;-71
2023/06/23 07:27:08;;;;;;;5.47;3.10;;;26.10;66.60;;;;;;6154706;22;92438;-70
2023/06/23 07:29:34;;;;;;;5.45;2.45;;;25.70;67.00;;;;;;6154255;22;94087;-72
2023/06/23 07:32:01;;;;;;;4.22;2.55;;;25.10;68.80;;;;;;6153415;22;93349;-71
2023/06/23 07:34:28;;;;;;;4.40;2.17;;;24.70;69.60;;;;;;6155333;22;92677;-69
2023/06/23 07:36:54;;;;;;;4.47;2.35;;;24.40;73.20;;;;;;6155159;22;92533;-71
2023/06/23 07:39:19;;;;;;;11.73;2.40;;;24.30;74.10;;;;;;6154793;22;93050;-70
2023/06/23 07:41:45;;;;;;;6.00;2.78;;;24.30;72.90;;;;;;6154881;22;93009;-70
2023/06/23 07:44:11;;;;;;;5.68;2.60;;;24.20;76.70;;;;;;6155246;22;93062;-71
2023/06/23 07:46:36;;;;;;;6.63;2.90;;;24.40;74.40;;;;;;6155914;22;91687;-71
2023/06/23 07:49:02;;;;;;;4.75;2.58;;;25.40;72.30;;;;;;6154462;22;93364;-72
2023/06/23 07:51:28;;;;;;;3.92;2.45;;;25.50;70.80;;;;;;6155149;22;92877;-70
2023/06/23 07:53:53;;;;;;;6.00;2.85;;;25.70;70.50;;;;;;6154684;22;93740;-71
2023/06/23 07:56:19;;;;;;;3.97;2.63;;;26.10;68.90;;;;;;6155480;22;92220;-71
2023/06/23 07:58:45;;;;;;;17.33;3.65;;;26.50;65.90;;;;;;6154960;22;93645;-72
2023/06/23 08:01:12;;;;;;;5.55;3.22;;;27.00;62.30;;;;;;6154419;22;92325;-72
2023/06/23 08:03:38;;;;;;;6.60;4.13;;;27.30;61.80;;;;;;6155088;22;93043;-70
2023/06/23 08:06:03;;;;;;;6.88;3.70;;;28.10;58.00;;;;;;6154898;22;92480;-73
2023/06/23 08:08:29;;;;;;;5.50;2.78;;;28.90;59.10;;;;;;6153094;22;95011;-70
2023/06/23 08:10:55;;;;;;;5.35;3.50;;;29.70;55.70;;;;;;6154708;22;93361;-71
2023/06/23 08:13:20;;;;;;;7.22;3.70;;;29.60;56.50;;;;;;6154810;22;92085;-71
2023/06/23 08:15:47;;;;;;;5.38;3.22;;;29.40;55.90;;;;;;6155438;22;92474;-70
2023/06/23 08:18:12;;;;;;;6.57;4.07;;;28.80;56.30;;;;;;6153361;22;93602;-71
2023/06/23 08:20:38;;;;;;;8.32;4.63;;;28.20;57.00;;;;;;6154307;22;92389;-72
2023/06/23 08:23:04;;;;;;;8.65;4.82;;;28.00;57.00;;;;;;6155476;22;92043;-71
2023/06/23 08:25:29;;;;;;;5.70;2.78;;;28.10;59.10;;;;;;6155218;22;92374;-69
2023/06/23 08:27:55;;;;;;;7.20;4.28;;;28.00;63.00;;;;;;6154700;22;92685;-70
2023/06/23 08:30:30;;;;;;;9.10;5.10;;;27.90;61.30;;;;;;6154303;22;92885;-70
2023/06/23 08:32:56;;;;;;;6.47;4.35;;;28.30;60.30;;;;;;6152751;22;92681;-72
2023/06/23 08:35:22;;;;;;;6.90;4.63;;;28.20;59.80;;;;;;6151809;22;91676;-70
2023/06/23 08:37:48;;;;;;;7.90;5.35;;;27.70;60.60;;;;;;6151169;22;93123;-70
2023/06/23 08:40:14;;;;;;;6.75;5.00;;;27.20;61.10;;;;;;6154062;22;92374;-71
2023/06/23 08:42:40;;;;;;;5.80;3.92;;;26.50;61.60;;;;;;6153282;22;93610;-72
2023/06/23 08:45:08;;;;;;;11.45;5.63;;;26.00;62.70;;;;;;6154199;22;92483;-71
2023/06/23 08:47:39;;;;;;;10.50;5.20;;;25.40;64.30;;;;;;6154027;22;92496;-70
2023/06/23 08:50:06;;;;;;;9.75;4.80;;;25.10;65.00;;;;;;6153743;22;93430;-71
2023/06/23 08:52:32;;;;;;;7.78;5.05;;;24.90;66.20;;;;;;6154289;22;92397;-69
2023/06/23 08:54:58;;;;;;;7.53;5.03;;;24.70;66.30;;;;;;6154425;22;92368;-72
2023/06/23 08:57:24;;;;;;;9.02;5.78;;;24.50;68.60;;;;;;6153906;22;92633;-71
2023/06/23 08:59:49;;;;;;;10.88;5.60;;;24.60;68.10;;;;;;6153409;22;92628;-71
2023/06/23 09:02:15;;;;;;;9.30;5.60;;;24.70;68.20;;;;;;6153248;22;92395;-70
2023/06/23 09:04:41;;;;;;;8.80;5.38;;;24.90;66.80;;;;;;6154315;22;92447;-71
2023/06/23 09:07:07;;;;;;;9.57;5.03;;;24.80;68.20;;;;;;6152179;22;94123;-70
2023/06/23 09:09:32;;;;;;;9.68;5.22;;;24.80;67.80;;;;;;6152323;22;93162;-70
2023/06/23 09:11:59;;;;;;;8.75;5.97;;;24.90;67.30;;;;;;6152757;22;92095;-70
2023/06/23 09:14:32;;;;;;;8.05;5.50;;;24.90;67.30;;;;;;6154067;22;92470;-71
2023/06/23 09:16:58;;;;;;;10.15;5.43;;;24.90;68.50;;;;;;6151050;22;92336;-70
2023/06/23 09:19:25;;;;;;;7.80;5.65;;;24.90;67.20;;;;;;6152078;22;92835;-71
2023/06/23 09:21:52;;;;;;;12.13;6.20;;;25.10;67.80;;;;;;6152784;22;92487;-72
2023/06/23 09:24:17;;;;;;;8.27;5.10;;;25.50;66.50;;;;;;6154708;22;91634;-71
2023/06/23 09:26:49;;;;;;;13.00;6.85;;;25.70;66.00;;;;;;6153324;22;93125;-70
2023/06/23 09:29:20;;;;;;;9.15;6.03;;;25.80;65.00;;;;;;6152003;22;93020;-71
2023/06/23 09:31:48;;;;;;;8.57;5.70;;;26.20;64.90;;;;;;6153023;22;93408;-72
2023/06/23 09:34:27;;;;;;;10.88;6.80;;;26.50;63.80;;;;;;6153230;22;92607;-71
2023/06/23 09:37:04;;;;;;;9.60;6.57;;;26.40;63.10;;;;;;6153876;22;93365;-70
2023/06/23 09:39:35;;;;;;;11.20;6.95;;;26.40;64.00;;;;;;6153821;22;93259;-70
2023/06/23 09:42:13;;;;;;;10.65;6.30;;;26.20;63.70;;;;;;6152403;22;92504;-74
2023/06/23 09:44:41;;;;;;;10.18;6.18;;;25.90;64.90;;;;;;6150587;22;92495;-74
2023/06/23 09:47:07;;;;;;;13.02;7.82;;;26.30;64.40;;;;;;6151418;22;93698;-70
2023/06/23 09:49:38;;;;;;;11.25;7.18;;;26.70;63.40;;;;;;6152568;22;92290;-70
2023/06/23 09:52:04;;;;;;;10.98;7.05;;;26.80;63.20;;;;;;6153376;22;92384;-71
2023/06/23 09:54:39;;;;;;;10.57;6.40;;;26.90;60.90;;;;;;6153414;22;92434;-71
2023/06/23 09:57:13;;;;;;;11.68;5.68;;;27.30;61.70;;;;;;6153661;22;94645;-70
2023/06/23 09:59:40;;;;;;;11.48;6.50;;;27.20;61.70;;;;;;6124073;22;96757;-73
2023/06/23 10:02:08;;;;;;;11.75;5.78;;;27.30;61.00;;;;;;6152020;22;92469;-70
2023/06/23 10:04:35;;;;;;;12.20;6.53;;;27.90;61.40;;;;;;6154589;22;92320;-71
2023/06/23 10:07:21;;;;;;;9.20;6.63;;;28.40;59.90;;;;;;6152663;22;93325;-71
2023/06/23 10:09:51;;;;;;;10.65;6.15;;;28.50;58.60;;;;;;6154838;22;92205;-71
2023/06/23 10:12:21;;;;;;;9.57;6.03;;;28.50;60.00;;;;;;6155455;22;92267;-69
2023/06/23 10:14:51;;;;;;;7.68;5.50;;;28.40;58.70;;;;;;6155357;22;91677;-71
2023/06/23 10:17:17;;;;;;;11.40;6.65;;;28.50;59.70;;;;;;6153084;22;93121;-72
2023/06/23 10:19:47;;;;;;;7.55;5.60;;;29.10;59.40;;;;;;6154340;22;92548;-71
2023/06/23 10:22:20;;;;;;;9.30;7.22;;;29.90;57.30;;;;;;6155115;22;93178;-71
2023/06/23 10:24:48;;;;;;;9.18;6.38;;;30.40;55.80;;;;;;6155183;22;92341;-71
2023/06/23 10:27:20;;;;;;;10.73;7.10;;;30.80;55.40;;;;;;6154151;22;92329;-74
2023/06/23 10:29:52;;;;;;;34.13;10.60;;;30.90;53.80;;;;;;6154408;22;92124;-70
2023/06/23 10:32:22;;;;;;;9.48;6.40;;;30.90;54.30;;;;;;6153738;22;92377;-71
2023/06/23 10:34:50;;;;;;;10.77;6.97;;;30.60;53.80;;;;;;6154758;22;92188;-70
2023/06/23 10:37:18;;;;;;;8.35;6.10;;;30.20;55.30;;;;;;6152574;22;93136;-71
2023/06/23 10:39:49;;;;;;;;;;;30.20;54.60;;;;;;6155011;22;93463;-70
2023/06/23 10:42:16;;;;;;;9.32;6.28;;;30.20;55.00;;;;;;6156623;22;92236;-70
2023/06/23 10:44:41;;;;;;;15.38;7.90;;;30.20;53.60;;;;;;6154377;22;92582;-71
2023/06/23 10:47:08;;;;;;;8.07;5.78;;;29.90;52.60;;;;;;6151966;22;93984;-70
2023/06/23 10:49:35;;;;;;;21.40;9.07;;;29.40;53.80;;;;;;6149298;22;93207;-72
2023/06/23 10:52:02;;;;;;;12.63;7.60;;;28.70;55.10;;;;;;6152431;22;92578;-70
2023/06/23 10:54:29;;;;;;;10.52;6.55;;;28.10;56.00;;;;;;6150394;22;92339;-70
2023/06/23 10:56:55;;;;;;;18.60;8.73;;;27.70;57.30;;;;;;6152188;22;92570;-70
2023/06/23 10:59:25;;;;;;;15.45;6.57;;;27.40;58.90;;;;;;6152387;22;92765;-70
2023/06/23 11:02:00;;;;;;;18.35;7.93;;;27.30;59.50;;;;;;6153211;22;92384;-71
2023/06/23 11:04:38;;;;;;;9.32;5.97;;;27.10;59.30;;;;;;6153165;22;91749;-71
2023/06/23 11:07:07;;;;;;;12.45;7.15;;;27.60;59.70;;;;;;6152207;22;93324;-71
2023/06/23 11:09:54;;;;;;;8.88;6.30;;;28.30;59.30;;;;;;6152794;22;92861;-71
2023/06/23 11:12:38;;;;;;;9.23;6.25;;;28.60;56.70;;;;;;6151462;22;93698;-70
2023/06/23 11:15:21;;;;;;;12.80;7.40;;;28.80;55.50;;;;;;6152710;22;92368;-70
2023/06/23 11:18:01;;;;;;;10.55;4.55;;;29.00;56.10;;;;;;6151058;22;93773;-71
2023/06/23 11:20:28;;;;;;;11.65;5.88;;;28.80;56.50;;;;;;6152182;22;93441;-70
2023/06/23 11:23:14;;;;;;;7.72;5.10;;;28.80;55.90;;;;;;6149760;22;92305;-71
2023/06/23 11:25:51;;;;;;;9.85;6.00;;;28.90;56.00;;;;;;6152469;22;92622;-71
2023/06/23 11:28:28;;;;;;;8.30;5.45;;;29.00;55.70;;;;;;6152474;22;93599;-73
2023/06/23 11:30:54;;;;;;;11.75;6.50;;;29.00;55.80;;;;;;6153030;22;92447;-71
2023/06/23 11:33:29;;;;;;;12.27;6.80;;;28.80;55.20;;;;;;6152977;22;92302;-71
2023/06/23 11:35:55;;;;;;;10.43;5.53;;;28.60;55.70;;;;;;6153016;22;92552;-70
2023/06/23 11:38:21;;;;;;;11.07;6.22;;;28.10;54.90;;;;;;6150119;22;94149;-73
2023/06/23 11:40:49;;;;;;;12.73;6.53;;;27.70;56.00;;;;;;6151274;22;93493;-71
2023/06/23 11:43:14;;;;;;;9.40;6.20;;;27.40;57.60;;;;;;6152327;22;92530;-70
2023/06/23 11:45:52;;;;;;;24.13;8.50;;;27.50;58.10;;;;;;6152814;22;92569;-71
2023/06/23 11:48:18;;;;;;;8.65;5.53;;;27.80;58.30;;;;;;6152149;22;92626;-72
2023/06/23 11:50:43;;;;;;;8.77;5.13;;;28.20;56.60;;;;;;6150426;22;93886;-70
2023/06/23 11:53:10;;;;;;;7.15;4.82;;;28.20;57.40;;;;;;6148820;22;92087;-71
2023/06/23 11:55:36;;;;;;;13.43;6.88;;;28.20;56.50;;;;;;6153087;22;92053;-71
2023/06/23 11:58:02;;;;;;;13.45;6.32;;;27.90;54.60;;;;;;6151678;22;92079;-70
2023/06/23 12:00:28;;;;;;;9.00;4.97;;;28.00;55.40;;;;;;6152311;22;92346;-70
2023/06/23 12:02:54;;;;;;;8.85;5.00;;;27.80;55.00;;;;;;6152221;22;93669;-70
2023/06/23 12:05:20;;;;;;;12.52;4.72;;;27.90;55.60;;;;;;6152866;22;92449;-70
2023/06/23 12:07:47;;;;;;;12.30;6.22;;;27.80;55.10;;;;;;6152105;22;92560;-70
2023/06/23 12:10:13;;;;;;;9.32;4.85;;;27.80;55.20;;;;;;6151847;22;92754;-72
2023/06/23 12:12:39;;;;;;;7.70;4.53;;;27.60;54.70;;;;;;6152862;22;92020;-70
2023/06/23 12:15:05;;;;;;;7.43;4.35;;;27.60;57.30;;;;;;6152555;22;92372;-70
2023/06/23 12:17:31;;;;;;;11.23;5.68;;;27.70;57.40;;;;;;6150643;22;92918;-71
2023/06/23 12:19:58;;;;;;;10.68;5.50;;;28.10;57.40;;;;;;6152984;22;92749;-70
2023/06/23 12:22:35;;;;;;;9.23;5.38;;;28.00;55.70;;;;;;6152638;22;92208;-70
2023/06/23 12:25:01;;;;;;;13.52;4.85;;;27.90;55.00;;;;;;6152749;22;92223;-72
2023/06/23 12:27:28;;;;;;;6.95;4.85;;;27.50;57.90;;;;;;6151274;22;93732;-70
2023/06/23 12:29:54;;;;;;;7.15;4.18;;;27.10;57.60;;;;;;6152197;22;94326;-73
2023/06/23 12:32:27;;;;;;;9.27;4.57;;;26.70;57.40;;;;;;6152611;22;92031;-70
2023/06/23 12:34:56;;;;;;;5.40;3.03;;;26.50;58.60;;;;;;6126269;22;92547;-70
2023/06/23 12:37:22;;;;;;;4.88;2.58;;;26.40;58.30;;;;;;6151407;22;93989;-69
2023/06/23 12:39:52;;;;;;;7.82;3.90;;;26.40;58.80;;;;;;6151038;22;92623;-69
2023/06/23 12:42:19;;;;;;;5.80;3.20;;;26.30;59.50;;;;;;6152074;22;92240;-70
2023/06/23 12:44:45;;;;;;;5.50;3.55;;;26.30;59.70;;;;;;6152379;22;92122;-72
2023/06/23 12:47:11;;;;;;;6.63;3.88;;;26.20;58.70;;;;;;6150944;22;92903;-69
2023/06/23 12:49:38;;;;;;;6.97;3.47;;;26.20;58.80;;;;;;6151477;22;93245;-69
2023/06/23 12:52:05;;;;;;;9.60;3.22;;;26.40;59.90;;;;;;6151056;22;93848;-70
2023/06/23 12:54:30;;;;;;;4.63;3.38;;;26.80;60.00;;;;;;6149361;22;92391;-71
2023/06/23 12:57:01;;;;;;;12.65;5.13;;;26.90;58.40;;;;;;6152947;22;93117;-71
2023/06/23 12:59:28;;;;;;;6.78;3.95;;;27.10;57.50;;;;;;6154205;22;93410;-71
2023/06/23 13:01:56;;;;;;;7.97;3.97;;;27.30;57.40;;;;;;6154235;22;92034;-69
2023/06/23 13:04:22;;;;;;;8.23;4.40;;;27.70;59.60;;;;;;6154798;22;92361;-72
2023/06/23 13:06:50;;;;;;;5.95;3.65;;;27.70;57.90;;;;;;6154248;22;92985;-73
2023/06/23 13:09:15;;;;;;;9.82;4.50;;;27.60;56.40;;;;;;6153715;22;92299;-70
2023/06/23 13:11:41;;;;;;;9.55;4.25;;;27.50;57.80;;;;;;6153575;22;92585;-70
2023/06/23 13:14:07;;;;;;;7.57;4.60;;;27.90;58.20;;;;;;6151939;22;93381;-72
2023/06/23 13:16:33;;;;;;;8.02;4.60;;;27.90;58.70;;;;;;6152087;22;93532;-72
2023/06/23 13:18:58;;;;;;;7.90;4.60;;;27.60;56.30;;;;;;6153715;22;93394;-71
2023/06/23 13:21:24;;;;;;;6.63;4.47;;;27.30;56.50;;;;;;6154051;22;92550;-71
2023/06/23 13:23:50;;;;;;;6.40;4.25;;;27.10;56.60;;;;;;6154882;22;92320;-72
2023/06/23 13:26:16;;;;;;;7.10;3.53;;;26.70;57.40;;;;;;6153170;22;93447;-71
2023/06/23 13:28:42;;;;;;;9.60;3.72;;;26.50;57.60;;;;;;6154418;22;93099;-71
2023/06/23 13:31:08;;;;;;;4.55;2.90;;;26.50;58.30;;;;;;6155105;22;92483;-73
2023/06/23 13:33:34;;;;;;;5.45;3.63;;;26.50;57.40;;;;;;6155443;22;91332;-73
2023/06/23 13:36:00;;;;;;;6.22;3.60;;;26.50;58.40;;;;;;6154986;22;93304;-71
2023/06/23 13:38:25;;;;;;;5.13;2.95;;;26.60;58.20;;;;;;6155228;22;92569;-71
2023/06/23 13:40:51;;;;;;;5.32;3.22;;;26.90;57.40;;;;;;6154640;22;93375;-71
2023/06/23 13:43:17;;;;;;;6.10;3.17;;;27.20;58.30;;;;;;6155798;22;92117;-71
2023/06/23 13:45:42;;;;;;;4.85;2.95;;;27.60;59.10;;;;;;6154989;22;93580;-70
2023/06/23 13:48:08;;;;;;;4.05;2.30;;;27.90;55.80;;;;;;6154917;22;92772;-72
2023/06/23 13:50:34;;;;;;;5.30;2.40;;;28.00;55.30;;;;;;6155346;22;92315;-73
2023/06/23 13:52:59;;;;;;;7.15;3.22;;;28.20;54.40;;;;;;6155025;22;92354;-71
2023/06/23 13:55:25;;;;;;;5.93;2.40;;;28.30;55.10;;;;;;6153983;22;93192;-71
2023/06/23 13:57:51;;;;;;;4.05;2.50;;;28.40;52.80;;;;;;6155217;22;92877;-71
2023/06/23 14:00:17;;;;;;;4.50;2.50;;;28.20;51.40;;;;;;6155818;22;92459;-71
2023/06/23 14:02:43;;;;;;;4.78;1.80;;;28.10;51.80;;;;;;6155897;22;92318;-71
2023/06/23 14:05:08;;;;;;;5.60;2.78;;;28.20;51.30;;;;;;6154537;22;93904;-72
2023/06/23 14:07:35;;;;;;;5.38;2.33;;;28.20;52.70;;;;;;6154928;22;94465;-70
2023/06/23 14:10:03;;;;;;;5.75;1.88;;;28.30;50.40;;;;;;6155659;22;92749;-72
2023/06/23 14:12:28;;;;;;;5.22;2.40;;;28.10;49.60;;;;;;6155492;22;92419;-71
2023/06/23 14:14:54;;;;;;;2.72;2.00;;;28.10;51.40;;;;;;6153934;22;93014;-70
2023/06/23 14:17:20;;;;;;;3.80;1.83;;;28.00;50.40;;;;;;6154287;22;92753;-70
2023/06/23 14:19:46;;;;;;;3.10;2.05;;;27.80;48.30;;;;;;6154984;22;92318;-69
2023/06/23 14:22:12;;;;;;;5.35;2.20;;;28.00;50.50;;;;;;6156214;22;91260;-71
2023/06/23 14:24:37;;;;;;;4.32;2.63;;;28.10;51.70;;;;;;6154939;22;93036;-69
2023/06/23 14:27:03;;;;;;;3.78;1.73;;;28.10;49.50;;;;;;6153668;22;92104;-70
2023/06/23 14:29:29;;;;;;;2.92;1.70;;;28.10;48.90;;;;;;6154074;22;93306;-71
2023/06/23 14:31:55;;;;;;;3.63;2.10;;;27.90;50.30;;;;;;6154443;22;92388;-72
2023/06/23 14:34:20;;;;;;;3.13;1.65;;;27.70;50.10;;;;;;6154316;22;92066;-73
2023/06/23 14:36:48;;;;;;;5.78;1.95;;;27.60;49.60;;;;;;6153033;22;93208;-71
2023/06/23 14:39:14;;;;;;;4.07;2.13;;;27.50;51.30;;;;;;6155424;22;92335;-72
2023/06/23 14:41:40;;;;;;;3.17;1.70;;;27.30;51.40;;;;;;6153932;22;92155;-70
2023/06/23 14:44:05;;;;;;;4.80;2.45;;;27.60;52.00;;;;;;6152964;22;93469;-70
2023/06/23 14:46:31;;;;;;;5.75;2.30;;;27.50;49.80;;;;;;6154717;22;91921;-72
2023/06/23 14:48:58;;;;;;;3.80;1.92;;;27.70;49.70;;;;;;6154796;22;92400;-71
2023/06/23 14:51:25;;;;;;;6.45;2.47;;;27.80;51.10;;;;;;6155156;22;92421;-72
2023/06/23 14:53:50;;;;;;;5.57;1.98;;;27.80;50.80;;;;;;6153785;22;93682;-71
2023/06/23 14:56:16;;;;;;;5.03;2.10;;;27.70;48.80;;;;;;6154341;22;94517;-70
2023/06/23 14:58:42;;;;;;;3.20;1.65;;;27.60;49.10;;;;;;6155895;22;92538;-74
2023/06/23 15:01:08;;;;;;;3.55;2.10;;;27.50;49.90;;;;;;6155738;22;92626;-71
2023/06/23 15:03:34;;;;;;;6.00;2.58;;;27.60;50.00;;;;;;6154724;22;92164;-71
2023/06/23 15:06:00;;;;;;;3.20;1.88;;;27.60;49.00;;;;;;6154700;22;93799;-71
2023/06/23 15:08:26;;;;;;;3.92;2.03;;;27.50;49.60;;;;;;6155433;22;92339;-72
2023/06/23 15:10:53;;;;;;;3.63;1.80;;;27.40;49.20;;;;;;6155884;22;91598;-72
2023/06/23 15:13:19;;;;;;;6.47;1.85;;;27.10;50.30;;;;;;6154843;22;93069;-71
2023/06/23 15:15:44;;;;;;;3.85;1.67;;;27.10;52.30;;;;;;6154472;22;92816;-72
2023/06/23 15:18:10;;;;;;;3.83;2.25;;;27.10;49.40;;;;;;6154157;22;93172;-70
2023/06/23 15:20:36;;;;;;;3.53;1.90;;;27.30;52.00;;;;;;6155825;22;92522;-70
2023/06/23 15:23:01;;;;;;;2.47;1.58;;;27.40;50.00;;;;;;6154715;22;93089;-70
2023/06/23 15:25:27;;;;;;;2.80;1.73;;;27.70;51.20;;;;;;6152989;22;95014;-68
2023/06/23 15:27:53;;;;;;;4.65;1.83;;;28.00;49.50;;;;;;6155555;22;92575;-72
2023/06/23 15:30:18;;;;;;;5.28;1.92;;;28.10;49.70;;;;;;6155068;22;92278;-73
2023/06/23 15:32:46;;;;;;;3.28;2.00;;;28.20;49.70;;;;;;6155093;22;94347;-71
2023/06/23 15:35:11;;;;;;;2.78;1.55;;;28.20;48.80;;;;;;6155533;22;92213;-72
2023/06/23 15:37:41;;;;;;;5.72;2.88;;;28.10;47.60;;;;;;6154883;22;92230;-71
2023/06/23 15:40:11;;;;;;;2.65;1.67;;;27.90;46.70;;;;;;6155381;22;92462;-71
2023/06/23 15:42:37;;;;;;;4.10;1.92;;;27.70;47.10;;;;;;6154092;22;93562;-71
2023/06/23 15:45:04;;;;;;;3.70;1.65;;;27.70;47.90;;;;;;6154234;22;93100;-72
2023/06/23 15:47:30;;;;;;;5.40;1.70;;;27.60;49.00;;;;;;6155592;22;92577;-70
2023/06/23 15:49:56;;;;;;;2.97;1.70;;;27.60;47.90;;;;;;6155065;22;92494;-71
2023/06/23 15:52:22;;;;;;;5.00;1.90;;;27.50;46.80;;;;;;6154083;22;92276;-70
2023/06/23 15:54:48;;;;;;;3.33;1.90;;;27.40;46.90;;;;;;6154366;22;92765;-72
2023/06/23 15:57:15;;;;;;;3.22;0.80;;;27.40;47.80;;;;;;6153516;22;92489;-74
2023/06/23 15:59:41;;;;;;;3.03;1.67;;;27.30;46.10;;;;;;6155520;22;91751;-71
2023/06/23 16:02:06;;;;;;;3.63;1.83;;;27.20;46.60;;;;;;6155120;22;93383;-72
2023/06/23 16:04:32;;;;;;;3.17;1.70;;;27.20;46.80;;;;;;6154014;22;92984;-71
2023/06/23 16:06:58;;;;;;;4.07;0.95;;;27.20;46.70;;;;;;6154770;22;93556;-71